449  
SXUS55 KTFX 210721  
OSOTFX  
 
AREA AWOS OBSERVATIONS  
NATIONAL WEATHER SERVICE GREAT FALLS MT  
1221 AM MST WED FEB 21 2018  
 
METAR K6S0 210720Z AUTO 00000KT 10SM CLR M20/M23 A3010 RMK A01  
METAR K6S8 210715Z AUTO 24012KT 10SM M21/M25 A3019 RMK A01  
METAR K7S6 210720Z AUTO 00000KT 10SM M25/M28 A3002 RMK A01  
METAR K7S0 210715Z AUTO 00000KT 10SM M18/M20 A3020 RMK A01  
 
CLICK HERE TO GO TO PREVIOUS BULLETINS.

The Nexlab MT Page Main Text Page